createdAt,value
2018-04-06T00:00:26.757Z,82.56
2018-04-06T00:01:26.768Z,81.90
2018-04-06T00:02:26.779Z,82.66
2018-04-06T00:03:26.790Z,82.18
2018-04-06T00:04:26.801Z,82.47
2018-04-06T00:05:26.815Z,82.66
2018-04-06T00:06:26.829Z,82.56
2018-04-06T00:07:26.836Z,83.04
2018-04-06T00:08:26.858Z,82.37
2018-04-06T00:09:26.857Z,82.56
2018-04-06T00:10:26.871Z,82.94
2018-04-06T00:11:26.884Z,82.66
2018-04-06T00:12:26.894Z,82.28
2018-04-06T00:13:26.907Z,82.85
2018-04-06T00:14:26.915Z,82.94
2018-04-06T00:15:26.928Z,82.85
2018-04-06T00:16:26.938Z,83.61
2018-04-06T00:17:26.952Z,82.85
2018-04-06T00:18:26.960Z,82.85
2018-04-06T00:19:26.973Z,83.51
2018-04-06T00:20:26.984Z,83.13
2018-04-06T00:21:26.995Z,82.56
2018-04-06T00:22:27.014Z,83.13
2018-04-06T00:23:27.018Z,82.85
2018-04-06T00:24:27.030Z,83.89
2018-04-06T00:25:27.042Z,83.13
2018-04-06T00:26:27.097Z,82.94
2018-04-06T00:27:27.061Z,82.85
2018-04-06T00:28:27.072Z,83.04
2018-04-06T00:29:27.090Z,83.13
2018-04-06T00:30:27.095Z,83.13
2018-04-06T00:31:27.113Z,83.04
2018-04-06T00:32:27.118Z,83.04
2018-04-06T00:33:27.130Z,83.51
2018-04-06T00:34:27.140Z,82.85
2018-04-06T00:35:27.155Z,82.94
2018-04-06T00:36:27.162Z,82.85
2018-04-06T00:37:27.175Z,83.04
2018-04-06T00:38:27.189Z,82.85
2018-04-06T00:39:27.197Z,83.04
2018-04-06T00:40:27.215Z,83.13
2018-04-06T00:41:27.220Z,83.04
2018-04-06T00:42:27.231Z,83.51
2018-04-06T00:43:27.240Z,83.70
2018-04-06T00:44:27.252Z,83.80
2018-04-06T00:45:27.269Z,83.98
2018-04-06T00:46:27.281Z,83.61
2018-04-06T00:47:27.289Z,83.80
2018-04-06T00:48:27.297Z,84.46
2018-04-06T00:49:27.311Z,84.27
2018-04-06T00:50:27.319Z,84.55
2018-04-06T00:51:27.330Z,84.65
2018-04-06T00:52:27.343Z,84.84
2018-04-06T00:53:27.371Z,84.94
2018-04-06T00:54:27.363Z,85.31
2018-04-06T00:55:27.387Z,84.55
2018-04-06T00:56:27.387Z,84.46
2018-04-06T00:57:27.398Z,84.74
2018-04-06T00:58:27.413Z,84.65
2018-04-06T00:59:27.420Z,84.84
2018-04-06T01:00:27.435Z,84.84
2018-04-06T01:01:27.442Z,84.65
2018-04-06T01:02:27.454Z,84.46
2018-04-06T01:03:27.462Z,84.46
2018-04-06T01:04:27.475Z,84.55
2018-04-06T01:05:27.487Z,84.36
2018-04-06T01:06:27.497Z,83.80
2018-04-06T01:07:27.508Z,84.27
2018-04-06T01:08:27.519Z,84.27
2018-04-06T01:09:27.534Z,84.94
2018-04-06T01:10:27.554Z,85.31
2018-04-06T01:11:27.558Z,85.69
2018-04-06T01:12:27.563Z,85.13
2018-04-06T01:13:27.579Z,85.69
2018-04-06T01:14:27.596Z,85.65
2018-04-06T01:15:27.618Z,85.55
2018-04-06T01:16:27.610Z,86.31
2018-04-06T01:17:27.619Z,86.45
2018-04-06T01:18:27.630Z,85.78
2018-04-06T01:19:27.643Z,85.65
2018-04-06T01:20:27.652Z,85.65
2018-04-06T01:21:27.663Z,85.74
2018-04-06T01:22:27.673Z,86.50
2018-04-06T01:23:27.689Z,85.84
2018-04-06T01:24:27.695Z,86.03
2018-04-06T01:25:27.707Z,86.50
2018-04-06T01:26:27.723Z,86.03
2018-04-06T01:27:27.728Z,86.41
2018-04-06T01:28:27.748Z,86.69
2018-04-06T01:29:27.750Z,86.69
2018-04-06T01:30:27.763Z,86.41
2018-04-06T01:31:27.774Z,86.79
2018-04-06T01:32:27.785Z,86.60
2018-04-06T01:33:27.796Z,86.50
2018-04-06T01:34:27.807Z,86.22
2018-04-06T01:35:27.817Z,85.36
2018-04-06T01:36:27.828Z,85.93
2018-04-06T01:37:27.839Z,85.84
2018-04-06T01:38:27.851Z,86.31
2018-04-06T01:39:27.861Z,85.55
2018-04-06T01:40:27.875Z,85.46
2018-04-06T01:41:27.882Z,85.65
2018-04-06T01:42:27.942Z,85.46
2018-04-06T01:43:27.906Z,85.65
2018-04-06T01:44:27.922Z,85.65
2018-04-06T01:45:27.927Z,85.74
2018-04-06T01:46:27.938Z,86.31
2018-04-06T01:47:27.947Z,86.22
2018-04-06T01:48:27.964Z,86.31
2018-04-06T01:49:27.973Z,87.26
2018-04-06T01:50:27.986Z,86.98
2018-04-06T01:51:27.993Z,86.88
2018-04-06T01:52:28.003Z,86.22
2018-04-06T01:53:28.021Z,86.31
2018-04-06T01:54:28.026Z,86.12
2018-04-06T01:55:28.036Z,85.93
2018-04-06T01:56:28.053Z,86.12
2018-04-06T01:57:28.062Z,86.88
2018-04-06T01:58:28.073Z,86.88
2018-04-06T01:59:28.083Z,86.88
2018-04-06T02:00:28.094Z,87.26
2018-04-06T02:01:28.118Z,87.16
2018-04-06T02:02:28.115Z,87.26
2018-04-06T02:03:28.130Z,86.60
2018-04-06T02:04:28.140Z,87.07
2018-04-06T02:05:28.148Z,86.79
2018-04-06T02:06:28.158Z,87.26
2018-04-06T02:07:28.167Z,86.60
2018-04-06T02:08:28.181Z,86.79
2018-04-06T02:09:28.192Z,87.26
2018-04-06T02:10:28.205Z,86.69
2018-04-06T02:11:28.215Z,86.60
2018-04-06T02:12:28.223Z,86.79
2018-04-06T02:13:28.236Z,87.07
2018-04-06T02:14:28.269Z,86.50
2018-04-06T02:15:28.257Z,87.07
2018-04-06T02:16:28.276Z,87.26
2018-04-06T02:17:28.279Z,87.54
2018-04-06T02:18:28.289Z,87.54
2018-04-06T02:19:28.300Z,87.26
2018-04-06T02:20:28.313Z,87.35
2018-04-06T02:21:28.322Z,88.02
2018-04-06T02:22:28.337Z,87.54
2018-04-06T02:23:28.350Z,87.07
2018-04-06T02:24:28.404Z,87.83
2018-04-06T02:25:28.367Z,87.54
2018-04-06T02:26:28.379Z,87.73
2018-04-06T02:27:28.391Z,87.54
2018-04-06T02:28:28.400Z,87.54
2018-04-06T02:29:28.415Z,87.35
2018-04-06T02:30:28.424Z,88.21
2018-04-06T02:31:28.433Z,88.49
2018-04-06T02:32:28.444Z,87.73
2018-04-06T02:33:28.455Z,87.73
2018-04-06T02:34:28.465Z,87.26
2018-04-06T02:35:28.478Z,87.26
2018-04-06T02:36:28.490Z,87.26
2018-04-06T02:37:28.497Z,87.83
2018-04-06T02:38:28.511Z,87.83
2018-04-06T02:39:28.521Z,88.21
2018-04-06T02:40:28.534Z,88.30
2018-04-06T02:41:28.544Z,88.40
2018-04-06T02:42:28.555Z,88.68
2018-04-06T02:43:28.566Z,88.30
2018-04-06T02:44:28.576Z,88.21
2018-04-06T02:45:28.590Z,88.21
2018-04-06T02:46:28.696Z,88.30
2018-04-06T02:47:28.618Z,88.40
2018-04-06T02:48:28.623Z,88.30
2018-04-06T02:49:28.632Z,87.45
2018-04-06T02:50:28.640Z,87.73
2018-04-06T02:51:28.652Z,88.11
2018-04-06T02:52:28.664Z,88.02
2018-04-06T02:53:28.674Z,88.30
2018-04-06T02:54:28.687Z,88.40
2018-04-06T02:55:28.702Z,88.96
2018-04-06T02:56:28.706Z,88.40
2018-04-06T02:57:28.720Z,88.96
2018-04-06T02:58:28.727Z,89.25
2018-04-06T02:59:28.741Z,88.54
2018-04-06T03:00:28.752Z,88.21
2018-04-06T03:01:28.763Z,89.25
2018-04-06T03:02:28.772Z,88.40
2018-04-06T03:03:28.790Z,87.73
2018-04-06T03:04:28.801Z,87.54
2018-04-06T03:05:28.806Z,87.83
2018-04-06T03:06:28.814Z,87.98
2018-04-06T03:07:28.826Z,88.07
2018-04-06T03:08:28.839Z,88.45
2018-04-06T03:09:28.849Z,88.45
2018-04-06T03:10:28.859Z,88.64
2018-04-06T03:11:28.872Z,88.26
2018-04-06T03:12:28.879Z,89.20
2018-04-06T03:13:28.889Z,88.35
2018-04-06T03:14:28.901Z,88.54
2018-04-06T03:15:28.912Z,88.64
2018-04-06T03:16:28.922Z,88.35
2018-04-06T03:17:28.931Z,88.35
2018-04-06T03:18:28.945Z,88.73
2018-04-06T03:19:28.953Z,88.26
2018-04-06T03:20:28.965Z,88.07
2018-04-06T03:21:28.976Z,87.78
2018-04-06T03:22:28.985Z,87.78
2018-04-06T03:23:28.997Z,87.78
2018-04-06T03:24:29.008Z,87.98
2018-04-06T03:25:29.032Z,88.17
2018-04-06T03:26:29.027Z,89.30
2018-04-06T03:27:29.039Z,88.73
2018-04-06T03:28:29.049Z,88.64
2018-04-06T03:29:29.061Z,88.35
2018-04-06T03:30:29.073Z,88.54
2018-04-06T03:31:29.096Z,88.54
2018-04-06T03:32:29.093Z,88.35
2018-04-06T03:33:29.105Z,88.17
2018-04-06T03:34:29.112Z,88.35
2018-04-06T03:35:29.126Z,88.35
2018-04-06T03:36:29.136Z,88.35
2018-04-06T03:37:29.148Z,89.30
2018-04-06T03:38:29.157Z,89.49
2018-04-06T03:39:29.173Z,89.01
2018-04-06T03:40:29.179Z,88.35
2018-04-06T03:41:29.188Z,88.35
2018-04-06T03:42:29.198Z,89.11
2018-04-06T03:43:29.209Z,89.20
2018-04-06T03:44:29.219Z,89.20
2018-04-06T03:45:29.233Z,88.92
2018-04-06T03:46:29.243Z,88.82
2018-04-06T03:47:29.251Z,89.39
2018-04-06T03:48:29.263Z,89.20
2018-04-06T03:49:29.273Z,88.92
2018-04-06T03:50:29.286Z,89.01
2018-04-06T03:51:29.294Z,89.11
2018-04-06T03:52:29.308Z,90.25
2018-04-06T03:53:29.316Z,90.15
2018-04-06T03:54:29.324Z,89.30
2018-04-06T03:55:29.356Z,89.77
2018-04-06T03:56:29.349Z,89.49
2018-04-06T03:57:29.367Z,89.87
2018-04-06T03:58:29.366Z,90.44
2018-04-06T03:59:29.382Z,90.25
2018-04-06T04:00:29.441Z,90.44
2018-04-06T04:01:29.414Z,90.72
2018-04-06T04:02:29.471Z,89.87
2018-04-06T04:03:29.419Z,90.25
2018-04-06T04:04:29.443Z,90.06
2018-04-06T04:05:29.446Z,90.44
2018-04-06T04:06:29.451Z,90.53
2018-04-06T04:07:29.461Z,90.72
2018-04-06T04:08:29.472Z,90.72
2018-04-06T04:09:29.483Z,90.72
2018-04-06T04:10:29.491Z,91.00
2018-04-06T04:11:29.502Z,90.53
2018-04-06T04:12:29.515Z,91.38
2018-04-06T04:13:29.531Z,90.72
2018-04-06T04:14:29.533Z,90.63
2018-04-06T04:15:29.546Z,90.34
2018-04-06T04:16:29.557Z,90.72
2018-04-06T04:17:29.577Z,91.57
2018-04-06T04:18:29.575Z,91.19
2018-04-06T04:19:29.586Z,91.19
2018-04-06T04:20:29.598Z,91.19
2018-04-06T04:21:29.608Z,90.72
2018-04-06T04:22:29.619Z,91.00
2018-04-06T04:23:29.629Z,90.72
2018-04-06T04:24:29.643Z,90.53
2018-04-06T04:25:29.654Z,91.48
2018-04-06T04:26:29.660Z,91.10
2018-04-06T04:27:29.671Z,90.81
2018-04-06T04:28:29.684Z,91.19
2018-04-06T04:29:29.737Z,90.91
2018-04-06T04:30:29.702Z,91.00
2018-04-06T04:31:29.710Z,90.44
2018-04-06T04:32:29.797Z,90.44
2018-04-06T04:33:29.743Z,90.81
2018-04-06T04:34:29.747Z,90.53
2018-04-06T04:35:29.755Z,90.63
2018-04-06T04:36:29.764Z,90.91
2018-04-06T04:37:29.775Z,91.19
2018-04-06T04:38:29.788Z,90.91
2018-04-06T04:39:29.795Z,90.15
2018-04-06T04:40:29.808Z,90.44
2018-04-06T04:41:29.829Z,90.06
2018-04-06T04:42:29.835Z,90.06
2018-04-06T04:43:29.837Z,90.15
2018-04-06T04:44:29.851Z,90.63
2018-04-06T04:45:29.857Z,91.48
2018-04-06T04:46:29.870Z,91.19
2018-04-06T04:47:29.878Z,91.48
2018-04-06T04:48:29.895Z,92.14
2018-04-06T04:49:29.899Z,91.19
2018-04-06T04:50:29.917Z,91.00
2018-04-06T04:51:29.926Z,91.19
2018-04-06T04:52:29.944Z,92.00
2018-04-06T04:53:30.043Z,91.95
2018-04-06T04:54:29.949Z,90.91
2018-04-06T04:55:29.962Z,91.67
2018-04-06T04:56:29.973Z,91.67
2018-04-06T04:57:29.988Z,91.15
2018-04-06T04:58:29.990Z,91.53
2018-04-06T04:59:30.004Z,92.05
2018-04-06T05:00:30.027Z,92.14
2018-04-06T05:01:30.044Z,91.86
2018-04-06T05:02:30.056Z,91.48
2018-04-06T05:03:30.054Z,90.81
2018-04-06T05:04:30.059Z,91.19
2018-04-06T05:05:30.072Z,91.76
2018-04-06T05:06:30.074Z,91.86
2018-04-06T05:07:30.089Z,92.24
2018-04-06T05:08:30.098Z,92.24
2018-04-06T05:09:30.107Z,91.57
2018-04-06T05:10:30.115Z,91.19
2018-04-06T05:11:30.129Z,91.48
2018-04-06T05:12:30.147Z,92.33
2018-04-06T05:13:30.150Z,92.52
2018-04-06T05:14:30.162Z,91.95
2018-04-06T05:15:30.170Z,91.57
2018-04-06T05:16:30.177Z,91.48
2018-04-06T05:17:30.190Z,91.57
2018-04-06T05:18:30.201Z,91.95
2018-04-06T05:19:30.212Z,91.38
2018-04-06T05:20:30.227Z,91.76
2018-04-06T05:21:30.229Z,91.57
2018-04-06T05:22:30.255Z,92.33
2018-04-06T05:23:30.257Z,91.67
2018-04-06T05:24:30.327Z,91.38
2018-04-06T05:25:30.279Z,92.24
2018-04-06T05:26:30.283Z,91.67
2018-04-06T05:27:30.294Z,91.86
2018-04-06T05:28:30.305Z,92.43
2018-04-06T05:29:30.323Z,92.05
2018-04-06T05:30:30.347Z,91.67
2018-04-06T05:31:30.332Z,91.57
2018-04-06T05:32:30.348Z,91.76
2018-04-06T05:33:30.358Z,90.91
2018-04-06T05:34:30.373Z,91.76
2018-04-06T05:35:30.378Z,92.24
2018-04-06T05:36:30.445Z,92.14
2018-04-06T05:37:30.410Z,91.95
2018-04-06T05:38:30.411Z,91.86
2018-04-06T05:39:30.417Z,91.19
2018-04-06T05:40:30.441Z,91.00
2018-04-06T05:41:30.442Z,90.53
2018-04-06T05:42:30.466Z,90.25
2018-04-06T05:43:30.459Z,91.29
2018-04-06T05:44:30.476Z,90.91
2018-04-06T05:45:30.510Z,91.48
2018-04-06T05:46:30.492Z,91.57
2018-04-06T05:47:30.503Z,90.81
2018-04-06T05:48:30.989Z,90.81
2018-04-06T05:49:30.525Z,90.81
2018-04-06T05:50:30.534Z,91.95
2018-04-06T05:51:30.545Z,91.29
2018-04-06T05:52:30.556Z,91.00
2018-04-06T05:53:30.567Z,90.53
2018-04-06T05:54:30.578Z,91.29
2018-04-06T05:55:30.606Z,91.29
2018-04-06T05:56:30.600Z,90.91
2018-04-06T05:57:30.615Z,90.72
2018-04-06T05:58:30.622Z,91.48
2018-04-06T05:59:30.630Z,91.10
2018-04-06T06:00:30.715Z,90.63
2018-04-06T06:01:30.663Z,90.34
2018-04-06T06:02:30.705Z,90.34
2018-04-06T06:03:30.690Z,91.00
2018-04-06T06:04:30.686Z,90.81
2018-04-06T06:05:30.706Z,91.29
2018-04-06T06:06:30.750Z,90.72
2018-04-06T06:07:30.723Z,90.72
2018-04-06T06:08:30.730Z,90.63
2018-04-06T06:09:30.738Z,90.25
2018-04-06T06:10:30.748Z,90.15
2018-04-06T06:11:30.776Z,90.15
2018-04-06T06:12:30.771Z,90.06
2018-04-06T06:13:30.786Z,90.06
2018-04-06T06:14:30.799Z,89.96
2018-04-06T06:15:30.800Z,90.25
2018-04-06T06:16:30.817Z,89.87
2018-04-06T06:17:30.865Z,90.15
2018-04-06T06:18:30.846Z,89.68
2018-04-06T06:19:30.862Z,89.30
2018-04-06T06:20:30.866Z,89.34
2018-04-06T06:21:30.873Z,88.78
2018-04-06T06:22:30.889Z,89.15
2018-04-06T06:23:30.897Z,89.15
2018-04-06T06:24:30.923Z,89.25
2018-04-06T06:25:30.929Z,89.44
2018-04-06T06:26:30.927Z,89.06
2018-04-06T06:27:30.934Z,88.96
2018-04-06T06:28:30.943Z,88.40
2018-04-06T06:29:30.955Z,88.40
2018-04-06T06:30:30.967Z,87.35
2018-04-06T06:31:30.975Z,87.07
2018-04-06T06:32:30.989Z,87.45
2018-04-06T06:33:31.996Z,87.64
2018-04-06T06:34:31.023Z,86.74
2018-04-06T06:35:31.148Z,86.88
2018-04-06T06:36:31.033Z,86.60
2018-04-06T06:37:31.040Z,86.31
2018-04-06T06:38:31.051Z,86.60
2018-04-06T06:39:31.063Z,86.31
2018-04-06T06:40:31.080Z,86.50
2018-04-06T06:41:31.095Z,86.79
2018-04-06T06:42:31.108Z,86.60
2018-04-06T06:43:31.198Z,86.31
2018-04-06T06:44:31.343Z,86.41
2018-04-06T06:45:31.131Z,87.02
2018-04-06T06:46:31.145Z,87.12
2018-04-06T06:47:31.170Z,86.74
2018-04-06T06:48:31.183Z,86.83
2018-04-06T06:49:31.176Z,86.16
2018-04-06T06:50:31.193Z,86.12
2018-04-06T06:51:31.208Z,86.12
2018-04-06T06:52:31.218Z,85.60
2018-04-06T06:53:31.230Z,85.69
2018-04-06T06:54:31.227Z,86.16
2018-04-06T06:55:31.237Z,86.16
2018-04-06T06:57:32.798Z,85.88
2018-04-06T06:58:31.273Z,85.60
2018-04-06T06:59:31.288Z,85.60
2018-04-06T07:00:31.312Z,85.69
2018-04-06T07:01:31.309Z,84.84
2018-04-06T07:02:31.318Z,84.65
2018-04-06T07:03:31.490Z,84.65
2018-04-06T07:04:31.340Z,84.17
2018-04-06T07:05:31.445Z,84.27
2018-04-06T07:06:32.598Z,84.27
2018-04-06T07:07:31.885Z,83.89
2018-04-06T07:08:31.387Z,83.98
2018-04-06T07:09:31.395Z,83.89
2018-04-06T07:10:31.405Z,84.17
2018-04-06T07:11:31.416Z,84.27
2018-04-06T07:12:31.437Z,84.27
2018-04-06T07:13:31.455Z,83.98
2018-04-06T07:14:31.471Z,83.74
2018-04-06T07:15:31.463Z,83.42
2018-04-06T07:16:31.475Z,82.94
2018-04-06T07:17:31.491Z,83.74
2018-04-06T07:18:31.498Z,83.08
2018-04-06T07:19:31.508Z,83.27
2018-04-06T07:20:31.521Z,82.60
2018-04-06T07:21:31.534Z,82.70
2018-04-06T07:22:31.544Z,82.13
2018-04-06T07:23:31.557Z,82.23
2018-04-06T07:24:31.569Z,81.94
2018-04-06T07:25:31.586Z,82.04
2018-04-06T07:26:31.595Z,82.04
2018-04-06T07:27:31.604Z,81.56
2018-04-06T07:28:31.619Z,81.66
2018-04-06T07:29:31.625Z,81.09
2018-04-06T07:30:31.636Z,81.47
2018-04-06T07:31:31.647Z,81.09
2018-04-06T07:32:31.690Z,81.18
2018-04-06T07:33:31.671Z,80.80
2018-04-06T07:34:32.319Z,80.33
2018-04-06T07:35:32.330Z,80.24
2018-04-06T07:36:33.135Z,80.08
2018-04-06T07:37:32.755Z,80.46
2018-04-06T07:38:31.902Z,80.08
2018-04-06T07:39:31.914Z,80.08
2018-04-06T07:40:32.276Z,79.71
2018-04-06T07:41:31.764Z,79.71
2018-04-06T07:42:31.774Z,79.23
2018-04-06T07:43:31.786Z,78.66
2018-04-06T07:44:31.816Z,78.28
2018-04-06T07:45:31.811Z,77.52
2018-04-06T07:46:31.826Z,77.43
2018-04-06T07:47:32.411Z,76.86
2018-04-06T07:49:32.533Z,76.95
2018-04-06T07:50:32.478Z,76.71
2018-04-06T07:51:32.528Z,76.86
2018-04-06T07:54:31.930Z,76.71
2018-04-06T07:55:31.929Z,76.14
2018-04-06T07:56:31.944Z,75.85
2018-04-06T07:57:31.957Z,76.52
2018-04-06T07:58:31.962Z,75.85
2018-04-06T07:59:31.976Z,75.85
2018-04-06T08:00:31.991Z,75.67
2018-04-06T08:01:32.002Z,75.76
2018-04-06T08:02:32.013Z,75.38
2018-04-06T08:03:32.038Z,75.28
2018-04-06T08:04:32.043Z,75.00
2018-04-06T08:05:32.049Z,75.19
2018-04-06T08:06:32.063Z,75.19
2018-04-06T08:07:32.094Z,74.52
2018-04-06T08:08:32.089Z,74.47
2018-04-06T08:09:32.128Z,74.15
2018-04-06T08:10:32.113Z,74.08
2018-04-06T08:11:32.123Z,73.90
2018-04-06T08:12:32.151Z,73.61
2018-04-06T08:13:32.147Z,74.18
2018-04-06T08:14:32.166Z,73.61
2018-04-06T08:16:32.181Z,73.90
2018-04-06T08:17:32.196Z,73.71
2018-04-06T08:18:32.209Z,74.27
2018-04-06T08:19:32.220Z,74.08
2018-04-06T08:20:32.235Z,74.27
2018-04-06T08:21:32.249Z,74.85
2018-04-06T08:22:32.260Z,73.90
2018-04-06T08:23:32.273Z,73.61
2018-04-06T08:24:32.280Z,73.61
2018-04-06T08:25:32.293Z,73.80
2018-04-06T08:26:32.306Z,72.56
2018-04-06T08:27:32.316Z,72.60
2018-04-06T08:28:32.348Z,72.60
2018-04-06T08:29:32.343Z,72.79
2018-04-06T08:30:32.362Z,72.99
2018-04-06T08:31:32.366Z,72.89
2018-04-06T08:32:32.384Z,73.18
2018-04-06T08:33:32.394Z,72.13
2018-04-06T08:34:32.527Z,71.46
2018-04-06T08:35:32.420Z,71.37
2018-04-06T08:36:32.435Z,71.27
2018-04-06T08:37:32.459Z,71.18
2018-04-06T08:38:32.455Z,70.32
2018-04-06T08:39:32.467Z,70.04
2018-04-06T08:40:32.494Z,69.37
2018-04-06T08:41:32.522Z,68.52
2018-04-06T08:42:32.515Z,67.50
2018-04-06T08:43:32.519Z,67.32
2018-04-06T08:44:32.929Z,66.27
2018-04-06T08:45:32.544Z,66.65
2018-04-06T08:46:32.555Z,65.80
2018-04-06T08:47:32.572Z,64.94
2018-04-06T08:48:32.592Z,65.22
2018-04-06T08:49:32.596Z,64.94
2018-04-06T08:50:32.613Z,63.99
2018-04-06T08:51:32.626Z,63.23
2018-04-06T08:52:32.641Z,63.23
2018-04-06T08:53:32.650Z,62.65
2018-04-06T08:54:32.660Z,62.12
2018-04-06T08:55:32.675Z,61.93
2018-04-06T08:56:32.688Z,61.64
2018-04-06T08:57:32.695Z,61.64
2018-04-06T08:58:32.712Z,62.02
2018-04-06T08:59:32.724Z,61.93
2018-04-06T09:00:32.749Z,61.55
2018-04-06T09:01:32.751Z,61.55
2018-04-06T09:02:32.764Z,61.74
2018-04-06T09:03:32.780Z,62.40
2018-04-06T09:04:32.832Z,62.69
2018-04-06T09:05:32.807Z,63.07
2018-04-06T09:06:32.827Z,63.26
2018-04-06T09:07:32.828Z,62.97
2018-04-06T09:08:32.841Z,61.96
2018-04-06T09:09:32.858Z,61.96
2018-04-06T09:10:32.863Z,61.64
2018-04-06T09:11:32.882Z,61.77
2018-04-06T09:12:32.917Z,60.53
2018-04-06T09:13:32.904Z,59.20
2018-04-06T09:14:32.918Z,58.81
2018-04-06T09:15:32.930Z,58.15
2018-04-06T09:16:32.945Z,57.67
2018-04-06T09:17:32.962Z,57.01
2018-04-06T09:18:33.036Z,56.53
2018-04-06T09:19:32.984Z,56.82
2018-04-06T09:20:32.996Z,55.58
2018-04-06T09:21:33.020Z,55.29
2018-04-06T09:22:33.024Z,56.24
2018-04-06T09:23:33.038Z,55.96
2018-04-06T09:24:33.052Z,55.29
2018-04-06T09:25:33.067Z,54.66
2018-04-06T09:26:33.078Z,54.35
2018-04-06T09:27:33.091Z,53.52
2018-04-06T09:28:33.108Z,53.58
2018-04-06T09:29:33.123Z,53.52
2018-04-06T09:30:33.133Z,52.75
2018-04-06T09:31:33.146Z,51.89
2018-04-06T09:32:33.159Z,51.61
2018-04-06T09:33:33.172Z,51.14
2018-04-06T09:34:33.199Z,49.90
2018-04-06T09:35:33.209Z,49.80
2018-04-06T09:36:33.222Z,49.04
2018-04-06T09:37:33.226Z,48.56
2018-04-06T09:38:33.239Z,48.66
2018-04-06T09:39:33.256Z,48.08
2018-04-06T09:40:33.268Z,48.27
2018-04-06T09:41:33.308Z,47.52
2018-04-06T09:42:33.335Z,46.66
2018-04-06T09:43:33.308Z,46.18
2018-04-06T09:44:33.337Z,46.09
2018-04-06T09:45:33.338Z,46.49
2018-04-06T09:46:33.350Z,46.39
2018-04-06T09:47:33.364Z,46.49
2018-04-06T09:48:33.387Z,46.20
2018-04-06T09:49:33.436Z,45.92
2018-04-06T09:50:33.404Z,45.63
2018-04-06T09:51:33.418Z,44.96
2018-04-06T09:53:34.541Z,44.01
2018-04-06T09:54:34.979Z,44.04
2018-04-06T09:55:33.477Z,43.37
2018-04-06T09:56:33.492Z,43.65
2018-04-06T09:57:33.685Z,42.99
2018-04-06T09:58:33.518Z,41.65
2018-04-06T09:59:33.536Z,41.56
2018-04-06T10:00:33.544Z,41.92
2018-04-06T10:01:33.560Z,42.22
2018-04-06T10:02:33.572Z,41.94
2018-04-06T10:03:33.638Z,42.99
2018-04-06T10:04:33.652Z,42.89
2018-04-06T10:05:33.621Z,44.04
2018-04-06T10:06:33.671Z,43.94
2018-04-06T10:07:33.649Z,43.84
2018-04-06T10:08:33.672Z,42.99
2018-04-06T10:09:33.671Z,42.13
2018-04-06T10:10:33.685Z,42.60
2018-04-06T10:11:33.703Z,43.08
2018-04-06T10:12:33.715Z,43.18
2018-04-06T10:13:33.730Z,43.94
2018-04-06T10:14:33.774Z,43.56
2018-04-06T10:15:33.810Z,43.20
2018-04-06T10:16:33.771Z,43.29
2018-04-06T10:17:33.786Z,42.82
2018-04-06T10:18:33.862Z,43.39
2018-04-06T10:19:33.814Z,43.39
2018-04-06T10:20:33.829Z,44.06
2018-04-06T10:21:33.843Z,43.96
2018-04-06T10:22:33.857Z,44.73
2018-04-06T10:23:33.882Z,44.53
2018-04-06T10:24:33.902Z,44.15
2018-04-06T10:25:33.900Z,43.77
2018-04-06T10:26:33.913Z,44.34
2018-04-06T10:27:33.927Z,43.87
2018-04-06T10:28:33.943Z,43.96
2018-04-06T10:29:34.054Z,44.34
2018-04-06T10:30:33.972Z,44.25
2018-04-06T10:31:33.987Z,44.82
2018-04-06T10:32:34.015Z,44.25
2018-04-06T10:33:34.015Z,44.15
2018-04-06T10:34:34.052Z,43.77
2018-04-06T10:35:34.052Z,43.77
2018-04-06T10:36:34.078Z,44.06
2018-04-06T10:37:34.076Z,44.44
2018-04-06T10:38:34.091Z,44.34
2018-04-06T10:39:34.100Z,45.20
2018-04-06T10:40:34.170Z,45.29
2018-04-06T10:41:34.130Z,44.92
2018-04-06T10:42:34.142Z,44.63
2018-04-06T10:43:34.159Z,45.20
2018-04-06T10:44:34.180Z,45.97
2018-04-06T10:45:34.194Z,46.15
2018-04-06T10:46:34.202Z,45.87
2018-04-06T10:47:34.225Z,46.08
2018-04-06T10:48:34.253Z,46.15
2018-04-06T10:49:34.245Z,46.25
2018-04-06T10:50:34.358Z,46.54
2018-04-06T10:51:34.275Z,47.39
2018-04-06T10:52:34.289Z,46.34
2018-04-06T10:53:34.321Z,46.73
2018-04-06T10:54:34.317Z,47.11
2018-04-06T10:55:34.333Z,47.58
2018-04-06T10:56:34.391Z,47.03
2018-04-06T10:57:34.365Z,47.52
2018-04-06T10:58:34.393Z,47.32
2018-04-06T10:59:34.392Z,46.75
2018-04-06T11:00:34.405Z,46.37
2018-04-06T11:01:34.420Z,45.99
2018-04-06T11:02:34.462Z,45.99
2018-04-06T11:03:34.448Z,46.37
2018-04-06T11:04:34.469Z,46.47
2018-04-06T11:05:34.483Z,46.66
2018-04-06T11:06:34.493Z,47.03
2018-04-06T11:07:34.507Z,48.08
2018-04-06T11:08:34.547Z,47.32
2018-04-06T11:09:34.539Z,47.32
2018-04-06T11:10:34.548Z,47.03
2018-04-06T11:11:34.564Z,47.03
2018-04-06T11:12:34.641Z,46.84
2018-04-06T11:13:34.799Z,45.99
2018-04-06T11:14:34.810Z,44.74
2018-04-06T11:15:34.652Z,44.27
2018-04-06T11:16:34.642Z,44.58
2018-04-06T11:17:34.787Z,44.20
2018-04-06T11:18:34.671Z,44.01
2018-04-06T11:19:34.682Z,43.43
2018-04-06T11:20:34.708Z,44.10
2018-04-06T11:21:34.726Z,44.08
2018-04-06T11:22:34.797Z,43.82
2018-04-06T11:23:34.743Z,44.48
2018-04-06T11:24:34.759Z,44.58
2018-04-06T11:25:34.778Z,45.43
2018-04-06T11:26:34.944Z,45.43
2018-04-06T11:27:34.800Z,45.34
2018-04-06T11:28:34.860Z,44.89
2018-04-06T11:29:34.904Z,45.37
2018-04-06T11:30:34.852Z,44.41
2018-04-06T11:31:34.897Z,44.41
2018-04-06T11:32:34.888Z,44.02
2018-04-06T11:33:34.902Z,43.15
2018-04-06T11:34:34.914Z,43.07
2018-04-06T11:35:34.917Z,42.10
2018-04-06T11:36:34.933Z,42.10
2018-04-06T11:37:34.954Z,42.02
2018-04-06T11:38:34.972Z,42.21
2018-04-06T11:39:34.984Z,42.11
2018-04-06T11:40:34.994Z,42.50
2018-04-06T11:41:35.007Z,42.21
2018-04-06T11:42:35.026Z,42.21
2018-04-06T11:43:35.037Z,41.74
2018-04-06T11:44:35.054Z,42.60
2018-04-06T11:45:35.076Z,42.31
2018-04-06T11:46:35.083Z,42.21
2018-04-06T11:47:35.109Z,42.02
2018-04-06T11:48:35.122Z,41.74
2018-04-06T11:49:35.127Z,42.02
2018-04-06T11:50:35.139Z,43.00
2018-04-06T11:51:35.177Z,42.33
2018-04-06T11:52:35.169Z,42.04
2018-04-06T11:53:35.195Z,42.04
2018-04-06T11:54:35.201Z,42.33
2018-04-06T11:55:35.211Z,42.33
2018-04-06T11:56:35.235Z,41.56
2018-04-06T11:57:35.244Z,42.02
2018-04-06T11:58:35.258Z,41.93
2018-04-06T11:59:35.284Z,42.52
2018-04-06T12:00:35.288Z,41.85
2018-04-06T12:01:35.303Z,43.19
2018-04-06T12:02:35.320Z,41.85
2018-04-06T12:03:35.344Z,41.28
2018-04-06T12:05:35.364Z,41.30
2018-04-06T12:06:35.378Z,41.09
2018-04-06T12:07:35.394Z,40.72
2018-04-06T12:08:35.409Z,40.92
2018-04-06T12:09:35.428Z,40.25
2018-04-06T12:10:35.446Z,39.86
2018-04-06T12:11:35.456Z,39.58
2018-04-06T12:12:35.487Z,39.58
2018-04-06T12:13:35.485Z,39.20
2018-04-06T12:14:35.500Z,39.96
2018-04-06T12:15:35.515Z,39.48
2018-04-06T12:16:35.539Z,39.58
2018-04-06T12:17:35.549Z,39.37
2018-04-06T12:18:35.569Z,38.51
2018-04-06T12:19:35.579Z,38.98
2018-04-06T12:20:35.592Z,39.77
2018-04-06T12:21:35.608Z,39.29
2018-04-06T12:22:35.626Z,39.77
2018-04-06T12:23:35.639Z,39.58
2018-04-06T12:24:37.950Z,39.77
2018-04-06T12:25:35.673Z,39.96
2018-04-06T12:26:35.686Z,39.67
2018-04-06T12:27:35.698Z,39.67
2018-04-06T12:28:35.716Z,38.83
2018-04-06T12:29:35.733Z,38.45
2018-04-06T12:30:35.745Z,40.17
2018-04-06T12:31:35.773Z,38.56
2018-04-06T12:32:35.792Z,37.21
2018-04-06T12:33:35.795Z,36.63
2018-04-06T12:34:35.818Z,36.73
2018-04-06T12:35:35.822Z,37.97
2018-04-06T12:36:35.841Z,37.11
2018-04-06T12:37:35.904Z,36.35
2018-04-06T12:38:35.868Z,36.15
2018-04-06T12:39:35.884Z,36.35
2018-04-06T12:40:35.906Z,36.06
2018-04-06T12:41:35.928Z,35.96
2018-04-06T12:42:35.939Z,36.54
2018-04-06T12:43:35.945Z,36.15
2018-04-06T12:44:36.618Z,36.82
2018-04-06T12:45:35.979Z,35.50
2018-04-06T12:46:35.996Z,34.26
2018-04-06T12:47:36.008Z,34.16
2018-04-06T12:48:36.024Z,34.55
2018-04-06T12:49:36.058Z,34.64
2018-04-06T12:50:36.057Z,34.45
2018-04-06T12:51:36.079Z,34.55
2018-04-06T12:52:36.094Z,34.34
2018-04-06T12:53:36.108Z,35.60
2018-04-06T12:54:36.121Z,34.55
2018-04-06T12:55:36.145Z,34.16
2018-04-06T12:56:36.212Z,33.30
2018-04-06T12:57:36.165Z,33.80
2018-04-06T12:58:36.185Z,32.92
2018-04-06T12:59:36.197Z,34.36